sensor_id;sensor_type;location;lat;lon;timestamp;P1;durP1;ratioP1;P2;durP2;ratioP2
72095;SDS011;59968;51.084;16.748;2023-03-01T00:00:43;50.00;;;20.00;;
72095;SDS011;59968;51.084;16.748;2023-03-01T00:03:22;49.30;;;19.60;;
72095;SDS011;59968;51.084;16.748;2023-03-01T00:05:50;50.70;;;20.10;;
72095;SDS011;59968;51.084;16.748;2023-03-01T00:08:19;47.80;;;19.90;;
72095;SDS011;59968;51.084;16.748;2023-03-01T00:11:09;54.10;;;20.90;;
72095;SDS011;59968;51.084;16.748;2023-03-01T00:13:39;49.60;;;18.90;;
72095;SDS011;59968;51.084;16.748;2023-03-01T00:16:11;51.60;;;20.60;;
72095;SDS011;59968;51.084;16.748;2023-03-01T00:18:41;52.60;;;19.90;;
72095;SDS011;59968;51.084;16.748;2023-03-01T00:21:09;51.00;;;20.00;;
72095;SDS011;59968;51.084;16.748;2023-03-01T00:23:38;60.30;;;20.80;;
72095;SDS011;59968;51.084;16.748;2023-03-01T00:26:08;49.20;;;19.60;;
72095;SDS011;59968;51.084;16.748;2023-03-01T00:28:39;57.80;;;20.50;;
72095;SDS011;59968;51.084;16.748;2023-03-01T00:31:10;50.70;;;20.30;;
72095;SDS011;59968;51.084;16.748;2023-03-01T00:33:42;53.50;;;19.70;;
72095;SDS011;59968;51.084;16.748;2023-03-01T00:36:14;53.70;;;20.50;;
72095;SDS011;59968;51.084;16.748;2023-03-01T00:38:43;57.60;;;21.90;;
72095;SDS011;59968;51.084;16.748;2023-03-01T00:41:14;51.70;;;20.70;;
72095;SDS011;59968;51.084;16.748;2023-03-01T00:43:44;60.00;;;22.40;;
72095;SDS011;59968;51.084;16.748;2023-03-01T00:46:14;81.60;;;24.90;;
72095;SDS011;59968;51.084;16.748;2023-03-01T00:48:45;90.90;;;28.60;;
72095;SDS011;59968;51.084;16.748;2023-03-01T00:51:15;69.60;;;23.30;;
72095;SDS011;59968;51.084;16.748;2023-03-01T00:53:52;52.40;;;19.70;;
72095;SDS011;59968;51.084;16.748;2023-03-01T00:56:22;47.60;;;20.40;;
72095;SDS011;59968;51.084;16.748;2023-03-01T00:58:52;47.20;;;18.90;;
72095;SDS011;59968;51.084;16.748;2023-03-01T01:01:21;47.50;;;19.30;;
72095;SDS011;59968;51.084;16.748;2023-03-01T01:03:55;47.00;;;18.90;;
72095;SDS011;59968;51.084;16.748;2023-03-01T01:06:38;49.20;;;19.30;;
72095;SDS011;59968;51.084;16.748;2023-03-01T01:09:13;40.10;;;15.70;;
72095;SDS011;59968;51.084;16.748;2023-03-01T01:11:49;42.40;;;16.70;;
72095;SDS011;59968;51.084;16.748;2023-03-01T01:14:19;46.40;;;17.60;;
72095;SDS011;59968;51.084;16.748;2023-03-01T01:16:48;41.30;;;16.90;;
72095;SDS011;59968;51.084;16.748;2023-03-01T01:19:17;43.20;;;18.70;;
72095;SDS011;59968;51.084;16.748;2023-03-01T01:21:46;38.70;;;15.70;;
72095;SDS011;59968;51.084;16.748;2023-03-01T01:24:16;38.80;;;15.60;;
72095;SDS011;59968;51.084;16.748;2023-03-01T01:26:45;39.60;;;16.50;;
72095;SDS011;59968;51.084;16.748;2023-03-01T01:29:14;41.50;;;16.90;;
72095;SDS011;59968;51.084;16.748;2023-03-01T01:31:42;39.50;;;16.80;;
72095;SDS011;59968;51.084;16.748;2023-03-01T01:34:19;41.80;;;17.00;;
72095;SDS011;59968;51.084;16.748;2023-03-01T01:36:50;42.70;;;18.10;;
72095;SDS011;59968;51.084;16.748;2023-03-01T01:39:22;43.50;;;17.00;;
72095;SDS011;59968;51.084;16.748;2023-03-01T01:41:50;43.50;;;16.20;;
72095;SDS011;59968;51.084;16.748;2023-03-01T01:44:19;43.10;;;17.30;;
72095;SDS011;59968;51.084;16.748;2023-03-01T01:49:53;40.40;;;16.20;;
72095;SDS011;59968;51.084;16.748;2023-03-01T01:55:03;43.50;;;17.20;;
72095;SDS011;59968;51.084;16.748;2023-03-01T02:00:06;44.80;;;17.90;;
72095;SDS011;59968;51.084;16.748;2023-03-01T02:02:41;48.10;;;18.00;;
72095;SDS011;59968;51.084;16.748;2023-03-01T02:05:16;48.10;;;18.90;;
72095;SDS011;59968;51.084;16.748;2023-03-01T02:07:53;47.40;;;18.00;;
72095;SDS011;59968;51.084;16.748;2023-03-01T02:10:23;45.80;;;18.50;;
72095;SDS011;59968;51.084;16.748;2023-03-01T02:12:53;45.20;;;17.00;;
72095;SDS011;59968;51.084;16.748;2023-03-01T02:15:22;41.00;;;16.50;;
72095;SDS011;59968;51.084;16.748;2023-03-01T02:17:52;44.70;;;17.20;;
72095;SDS011;59968;51.084;16.748;2023-03-01T02:22:57;46.70;;;18.90;;
72095;SDS011;59968;51.084;16.748;2023-03-01T02:28:32;58.00;;;22.30;;
72095;SDS011;59968;51.084;16.748;2023-03-01T02:31:03;90.00;;;29.20;;
72095;SDS011;59968;51.084;16.748;2023-03-01T02:33:53;83.90;;;28.10;;
72095;SDS011;59968;51.084;16.748;2023-03-01T02:36:26;59.10;;;21.50;;
72095;SDS011;59968;51.084;16.748;2023-03-01T02:38:59;45.30;;;17.00;;
72095;SDS011;59968;51.084;16.748;2023-03-01T02:41:31;39.50;;;15.20;;
72095;SDS011;59968;51.084;16.748;2023-03-01T02:44:04;45.60;;;18.70;;
72095;SDS011;59968;51.084;16.748;2023-03-01T02:46:33;50.90;;;20.90;;
72095;SDS011;59968;51.084;16.748;2023-03-01T02:49:02;52.60;;;20.70;;
72095;SDS011;59968;51.084;16.748;2023-03-01T02:51:48;135.30;;;43.70;;
72095;SDS011;59968;51.084;16.748;2023-03-01T02:56:59;49.20;;;18.90;;
72095;SDS011;59968;51.084;16.748;2023-03-01T02:59:31;61.40;;;23.60;;
72095;SDS011;59968;51.084;16.748;2023-03-01T03:02:07;78.90;;;29.80;;
72095;SDS011;59968;51.084;16.748;2023-03-01T03:05:14;64.20;;;23.50;;
72095;SDS011;59968;51.084;16.748;2023-03-01T03:07:46;71.50;;;26.60;;
72095;SDS011;59968;51.084;16.748;2023-03-01T03:10:18;59.90;;;22.80;;
72095;SDS011;59968;51.084;16.748;2023-03-01T03:12:53;52.60;;;20.10;;
72095;SDS011;59968;51.084;16.748;2023-03-01T03:15:23;55.50;;;21.50;;
72095;SDS011;59968;51.084;16.748;2023-03-01T03:17:53;57.90;;;21.80;;
72095;SDS011;59968;51.084;16.748;2023-03-01T03:20:23;79.30;;;25.70;;
72095;SDS011;59968;51.084;16.748;2023-03-01T03:22:55;62.80;;;23.40;;
72095;SDS011;59968;51.084;16.748;2023-03-01T03:25:26;50.90;;;20.50;;
72095;SDS011;59968;51.084;16.748;2023-03-01T03:27:56;54.60;;;21.50;;
72095;SDS011;59968;51.084;16.748;2023-03-01T03:30:29;51.50;;;19.80;;
72095;SDS011;59968;51.084;16.748;2023-03-01T03:32:59;55.20;;;21.40;;
72095;SDS011;59968;51.084;16.748;2023-03-01T03:35:29;51.70;;;20.20;;
72095;SDS011;59968;51.084;16.748;2023-03-01T03:37:59;59.30;;;21.20;;
72095;SDS011;59968;51.084;16.748;2023-03-01T03:40:39;63.00;;;22.70;;
72095;SDS011;59968;51.084;16.748;2023-03-01T03:43:18;75.80;;;24.80;;
72095;SDS011;59968;51.084;16.748;2023-03-01T03:45:48;67.10;;;22.40;;
72095;SDS011;59968;51.084;16.748;2023-03-01T03:48:18;61.70;;;22.60;;
72095;SDS011;59968;51.084;16.748;2023-03-01T03:50:48;66.40;;;22.20;;
72095;SDS011;59968;51.084;16.748;2023-03-01T03:53:18;81.00;;;26.50;;
72095;SDS011;59968;51.084;16.748;2023-03-01T03:55:48;59.60;;;21.50;;
72095;SDS011;59968;51.084;16.748;2023-03-01T03:58:20;60.70;;;20.00;;
72095;SDS011;59968;51.084;16.748;2023-03-01T04:00:50;67.80;;;24.40;;
72095;SDS011;59968;51.084;16.748;2023-03-01T04:03:21;69.10;;;24.60;;
72095;SDS011;59968;51.084;16.748;2023-03-01T04:05:51;62.60;;;22.20;;
72095;SDS011;59968;51.084;16.748;2023-03-01T04:08:21;57.20;;;20.80;;
72095;SDS011;59968;51.084;16.748;2023-03-01T04:10:51;51.60;;;20.70;;
72095;SDS011;59968;51.084;16.748;2023-03-01T04:13:22;55.30;;;19.00;;
72095;SDS011;59968;51.084;16.748;2023-03-01T04:15:53;50.80;;;20.30;;
72095;SDS011;59968;51.084;16.748;2023-03-01T04:18:22;54.50;;;20.50;;
72095;SDS011;59968;51.084;16.748;2023-03-01T04:20:53;53.80;;;20.50;;
72095;SDS011;59968;51.084;16.748;2023-03-01T04:23:23;52.60;;;20.30;;
72095;SDS011;59968;51.084;16.748;2023-03-01T04:28:30;49.10;;;19.40;;
72095;SDS011;59968;51.084;16.748;2023-03-01T04:31:06;50.40;;;20.60;;
72095;SDS011;59968;51.084;16.748;2023-03-01T04:36:13;55.10;;;22.30;;
72095;SDS011;59968;51.084;16.748;2023-03-01T04:38:43;59.40;;;21.10;;
72095;SDS011;59968;51.084;16.748;2023-03-01T04:41:17;54.90;;;20.60;;
72095;SDS011;59968;51.084;16.748;2023-03-01T04:43:46;47.70;;;19.00;;
72095;SDS011;59968;51.084;16.748;2023-03-01T04:46:19;50.50;;;19.10;;
72095;SDS011;59968;51.084;16.748;2023-03-01T04:48:48;57.70;;;22.50;;
72095;SDS011;59968;51.084;16.748;2023-03-01T04:51:18;54.70;;;21.40;;
72095;SDS011;59968;51.084;16.748;2023-03-01T04:53:47;54.00;;;20.10;;
72095;SDS011;59968;51.084;16.748;2023-03-01T04:56:18;56.00;;;21.00;;
72095;SDS011;59968;51.084;16.748;2023-03-01T04:58:46;53.70;;;21.00;;
72095;SDS011;59968;51.084;16.748;2023-03-01T05:01:19;49.40;;;19.50;;
72095;SDS011;59968;51.084;16.748;2023-03-01T05:03:49;49.30;;;19.10;;
72095;SDS011;59968;51.084;16.748;2023-03-01T05:06:19;52.00;;;20.20;;
72095;SDS011;59968;51.084;16.748;2023-03-01T05:08:48;54.80;;;20.60;;
72095;SDS011;59968;51.084;16.748;2023-03-01T05:11:19;52.60;;;20.70;;
72095;SDS011;59968;51.084;16.748;2023-03-01T05:13:47;53.20;;;20.60;;
72095;SDS011;59968;51.084;16.748;2023-03-01T05:16:17;54.00;;;20.70;;
72095;SDS011;59968;51.084;16.748;2023-03-01T05:18:48;53.90;;;21.30;;
72095;SDS011;59968;51.084;16.748;2023-03-01T05:21:19;49.90;;;20.40;;
72095;SDS011;59968;51.084;16.748;2023-03-01T05:23:47;54.70;;;21.30;;
72095;SDS011;59968;51.084;16.748;2023-03-01T05:26:17;58.00;;;21.50;;
72095;SDS011;59968;51.084;16.748;2023-03-01T05:29:06;51.80;;;20.60;;
72095;SDS011;59968;51.084;16.748;2023-03-01T05:31:34;54.40;;;20.10;;
72095;SDS011;59968;51.084;16.748;2023-03-01T05:34:02;54.60;;;21.30;;
72095;SDS011;59968;51.084;16.748;2023-03-01T05:36:31;53.20;;;20.60;;
72095;SDS011;59968;51.084;16.748;2023-03-01T05:39:00;50.80;;;19.40;;
72095;SDS011;59968;51.084;16.748;2023-03-01T05:41:28;50.40;;;20.00;;
72095;SDS011;59968;51.084;16.748;2023-03-01T05:43:57;53.10;;;19.90;;
72095;SDS011;59968;51.084;16.748;2023-03-01T05:46:25;50.70;;;19.80;;
72095;SDS011;59968;51.084;16.748;2023-03-01T05:48:54;48.50;;;19.60;;
72095;SDS011;59968;51.084;16.748;2023-03-01T05:51:23;46.10;;;19.10;;
72095;SDS011;59968;51.084;16.748;2023-03-01T05:53:51;47.10;;;18.90;;
72095;SDS011;59968;51.084;16.748;2023-03-01T05:56:20;54.00;;;20.10;;
72095;SDS011;59968;51.084;16.748;2023-03-01T05:58:50;51.20;;;19.80;;
72095;SDS011;59968;51.084;16.748;2023-03-01T06:01:20;51.40;;;20.10;;
72095;SDS011;59968;51.084;16.748;2023-03-01T06:03:49;48.70;;;18.20;;
72095;SDS011;59968;51.084;16.748;2023-03-01T06:06:18;55.00;;;21.40;;
72095;SDS011;59968;51.084;16.748;2023-03-01T06:08:47;56.00;;;21.60;;
72095;SDS011;59968;51.084;16.748;2023-03-01T06:11:18;51.10;;;20.10;;
72095;SDS011;59968;51.084;16.748;2023-03-01T06:13:47;64.20;;;24.70;;
72095;SDS011;59968;51.084;16.748;2023-03-01T06:16:15;60.30;;;22.20;;
72095;SDS011;59968;51.084;16.748;2023-03-01T06:18:44;53.10;;;21.20;;
72095;SDS011;59968;51.084;16.748;2023-03-01T06:21:13;56.20;;;21.30;;
72095;SDS011;59968;51.084;16.748;2023-03-01T06:23:41;65.00;;;25.20;;
72095;SDS011;59968;51.084;16.748;2023-03-01T06:26:09;72.00;;;27.00;;
72095;SDS011;59968;51.084;16.748;2023-03-01T06:28:38;58.50;;;23.20;;
72095;SDS011;59968;51.084;16.748;2023-03-01T06:31:06;53.60;;;21.70;;
72095;SDS011;59968;51.084;16.748;2023-03-01T06:33:37;47.60;;;19.80;;
72095;SDS011;59968;51.084;16.748;2023-03-01T06:36:06;52.60;;;19.20;;
72095;SDS011;59968;51.084;16.748;2023-03-01T06:38:35;54.60;;;22.60;;
72095;SDS011;59968;51.084;16.748;2023-03-01T06:41:04;60.20;;;22.40;;
72095;SDS011;59968;51.084;16.748;2023-03-01T06:43:32;58.50;;;22.10;;
72095;SDS011;59968;51.084;16.748;2023-03-01T06:46:04;55.90;;;21.90;;
72095;SDS011;59968;51.084;16.748;2023-03-01T06:48:33;59.00;;;23.00;;
72095;SDS011;59968;51.084;16.748;2023-03-01T06:51:02;56.90;;;19.90;;
72095;SDS011;59968;51.084;16.748;2023-03-01T06:53:31;61.50;;;22.90;;
72095;SDS011;59968;51.084;16.748;2023-03-01T06:55:59;69.40;;;27.30;;
72095;SDS011;59968;51.084;16.748;2023-03-01T06:58:28;71.40;;;29.30;;
72095;SDS011;59968;51.084;16.748;2023-03-01T07:00:56;67.80;;;26.30;;
72095;SDS011;59968;51.084;16.748;2023-03-01T07:03:25;55.10;;;22.70;;
72095;SDS011;59968;51.084;16.748;2023-03-01T07:05:53;55.20;;;23.00;;
72095;SDS011;59968;51.084;16.748;2023-03-01T07:08:22;58.10;;;23.60;;
72095;SDS011;59968;51.084;16.748;2023-03-01T07:11:00;68.30;;;25.40;;
72095;SDS011;59968;51.084;16.748;2023-03-01T07:13:30;76.70;;;28.10;;
72095;SDS011;59968;51.084;16.748;2023-03-01T07:15:58;76.70;;;29.00;;
72095;SDS011;59968;51.084;16.748;2023-03-01T07:18:26;81.10;;;32.20;;
72095;SDS011;59968;51.084;16.748;2023-03-01T07:20:55;74.30;;;29.40;;
72095;SDS011;59968;51.084;16.748;2023-03-01T07:23:24;72.00;;;27.80;;
72095;SDS011;59968;51.084;16.748;2023-03-01T07:25:52;74.40;;;27.60;;
72095;SDS011;59968;51.084;16.748;2023-03-01T07:28:24;70.70;;;28.50;;
72095;SDS011;59968;51.084;16.748;2023-03-01T07:30:53;71.60;;;28.70;;
72095;SDS011;59968;51.084;16.748;2023-03-01T07:33:21;73.60;;;30.10;;
72095;SDS011;59968;51.084;16.748;2023-03-01T07:35:55;66.90;;;27.20;;
72095;SDS011;59968;51.084;16.748;2023-03-01T07:38:31;59.90;;;25.70;;
72095;SDS011;59968;51.084;16.748;2023-03-01T07:41:00;64.50;;;26.00;;
72095;SDS011;59968;51.084;16.748;2023-03-01T07:43:31;62.70;;;26.50;;
72095;SDS011;59968;51.084;16.748;2023-03-01T07:46:00;64.30;;;26.20;;
72095;SDS011;59968;51.084;16.748;2023-03-01T07:48:31;60.20;;;24.60;;
72095;SDS011;59968;51.084;16.748;2023-03-01T07:51:01;58.30;;;23.90;;
72095;SDS011;59968;51.084;16.748;2023-03-01T07:53:31;58.30;;;23.90;;
72095;SDS011;59968;51.084;16.748;2023-03-01T07:56:06;60.10;;;24.90;;
72095;SDS011;59968;51.084;16.748;2023-03-01T07:58:37;58.00;;;22.90;;
72095;SDS011;59968;51.084;16.748;2023-03-01T08:01:07;60.40;;;25.50;;
72095;SDS011;59968;51.084;16.748;2023-03-01T08:03:38;65.90;;;27.20;;
72095;SDS011;59968;51.084;16.748;2023-03-01T08:06:09;59.10;;;24.10;;
72095;SDS011;59968;51.084;16.748;2023-03-01T08:08:39;64.40;;;27.90;;
72095;SDS011;59968;51.084;16.748;2023-03-01T08:11:10;69.70;;;28.00;;
72095;SDS011;59968;51.084;16.748;2023-03-01T08:13:39;72.20;;;28.80;;
72095;SDS011;59968;51.084;16.748;2023-03-01T08:16:12;67.80;;;26.90;;
72095;SDS011;59968;51.084;16.748;2023-03-01T08:18:42;60.20;;;24.20;;
72095;SDS011;59968;51.084;16.748;2023-03-01T08:21:13;62.50;;;26.10;;
72095;SDS011;59968;51.084;16.748;2023-03-01T08:23:43;63.20;;;26.40;;
72095;SDS011;59968;51.084;16.748;2023-03-01T08:26:15;56.90;;;24.60;;
72095;SDS011;59968;51.084;16.748;2023-03-01T08:28:47;61.40;;;23.90;;
72095;SDS011;59968;51.084;16.748;2023-03-01T08:31:19;49.00;;;21.70;;
72095;SDS011;59968;51.084;16.748;2023-03-01T08:33:54;53.00;;;23.20;;
72095;SDS011;59968;51.084;16.748;2023-03-01T08:36:29;57.10;;;24.10;;
72095;SDS011;59968;51.084;16.748;2023-03-01T08:39:00;55.80;;;22.70;;
72095;SDS011;59968;51.084;16.748;2023-03-01T08:41:28;58.80;;;23.90;;
72095;SDS011;59968;51.084;16.748;2023-03-01T08:43:57;56.00;;;23.50;;
72095;SDS011;59968;51.084;16.748;2023-03-01T08:46:30;62.70;;;23.90;;
72095;SDS011;59968;51.084;16.748;2023-03-01T08:49:04;51.90;;;23.40;;
72095;SDS011;59968;51.084;16.748;2023-03-01T08:51:35;55.70;;;23.10;;
72095;SDS011;59968;51.084;16.748;2023-03-01T08:54:09;54.60;;;22.80;;
72095;SDS011;59968;51.084;16.748;2023-03-01T08:56:40;48.50;;;20.90;;
72095;SDS011;59968;51.084;16.748;2023-03-01T08:59:12;44.90;;;20.60;;
72095;SDS011;59968;51.084;16.748;2023-03-01T09:01:43;42.40;;;18.40;;
72095;SDS011;59968;51.084;16.748;2023-03-01T09:04:12;41.50;;;18.50;;
72095;SDS011;59968;51.084;16.748;2023-03-01T09:06:40;42.20;;;18.80;;
72095;SDS011;59968;51.084;16.748;2023-03-01T09:09:12;37.60;;;17.80;;
72095;SDS011;59968;51.084;16.748;2023-03-01T09:11:44;45.10;;;18.30;;
72095;SDS011;59968;51.084;16.748;2023-03-01T09:14:14;39.30;;;18.40;;
72095;SDS011;59968;51.084;16.748;2023-03-01T09:16:43;40.20;;;18.80;;
72095;SDS011;59968;51.084;16.748;2023-03-01T09:19:11;39.90;;;17.60;;
72095;SDS011;59968;51.084;16.748;2023-03-01T09:21:43;43.80;;;19.60;;
72095;SDS011;59968;51.084;16.748;2023-03-01T09:24:22;41.80;;;19.30;;
72095;SDS011;59968;51.084;16.748;2023-03-01T09:26:55;45.50;;;19.60;;
72095;SDS011;59968;51.084;16.748;2023-03-01T09:29:24;30.10;;;12.90;;
72095;SDS011;59968;51.084;16.748;2023-03-01T09:31:54;34.60;;;16.20;;
72095;SDS011;59968;51.084;16.748;2023-03-01T09:34:23;29.20;;;13.20;;
72095;SDS011;59968;51.084;16.748;2023-03-01T09:36:51;31.80;;;13.80;;
72095;SDS011;59968;51.084;16.748;2023-03-01T09:39:20;30.80;;;14.50;;
72095;SDS011;59968;51.084;16.748;2023-03-01T09:41:50;36.10;;;16.40;;
72095;SDS011;59968;51.084;16.748;2023-03-01T09:46:59;33.50;;;14.70;;
72095;SDS011;59968;51.084;16.748;2023-03-01T09:49:30;36.00;;;16.10;;
72095;SDS011;59968;51.084;16.748;2023-03-01T09:54:54;37.70;;;17.20;;
72095;SDS011;59968;51.084;16.748;2023-03-01T10:00:00;34.70;;;17.00;;
72095;SDS011;59968;51.084;16.748;2023-03-01T10:02:51;29.90;;;14.50;;
72095;SDS011;59968;51.084;16.748;2023-03-01T10:10:37;35.40;;;16.90;;
72095;SDS011;59968;51.084;16.748;2023-03-01T10:13:14;35.90;;;16.90;;
72095;SDS011;59968;51.084;16.748;2023-03-01T10:15:51;36.70;;;16.80;;
72095;SDS011;59968;51.084;16.748;2023-03-01T10:18:26;37.70;;;17.20;;
72095;SDS011;59968;51.084;16.748;2023-03-01T10:21:00;37.80;;;18.30;;
72095;SDS011;59968;51.084;16.748;2023-03-01T10:23:31;36.80;;;17.20;;
72095;SDS011;59968;51.084;16.748;2023-03-01T10:31:15;36.00;;;16.10;;
72095;SDS011;59968;51.084;16.748;2023-03-01T10:33:49;38.30;;;15.80;;
72095;SDS011;59968;51.084;16.748;2023-03-01T10:36:23;34.10;;;15.10;;
72095;SDS011;59968;51.084;16.748;2023-03-01T10:38:57;31.10;;;14.20;;
72095;SDS011;59968;51.084;16.748;2023-03-01T10:41:26;33.60;;;15.20;;
72095;SDS011;59968;51.084;16.748;2023-03-01T10:43:56;31.70;;;14.90;;
72095;SDS011;59968;51.084;16.748;2023-03-01T10:46:29;29.50;;;14.30;;
72095;SDS011;59968;51.084;16.748;2023-03-01T10:49:12;33.60;;;16.20;;
72095;SDS011;59968;51.084;16.748;2023-03-01T10:51:48;26.90;;;12.60;;
72095;SDS011;59968;51.084;16.748;2023-03-01T10:56:54;25.30;;;10.80;;
72095;SDS011;59968;51.084;16.748;2023-03-01T10:59:37;25.20;;;11.60;;
72095;SDS011;59968;51.084;16.748;2023-03-01T11:02:17;26.50;;;13.20;;
72095;SDS011;59968;51.084;16.748;2023-03-01T11:07:47;25.30;;;12.90;;
72095;SDS011;59968;51.084;16.748;2023-03-01T11:10:25;25.80;;;12.80;;
72095;SDS011;59968;51.084;16.748;2023-03-01T11:13:06;27.00;;;13.30;;
72095;SDS011;59968;51.084;16.748;2023-03-01T11:15:35;24.30;;;12.00;;
72095;SDS011;59968;51.084;16.748;2023-03-01T11:18:22;26.50;;;12.00;;
72095;SDS011;59968;51.084;16.748;2023-03-01T11:21:07;28.50;;;13.00;;
72095;SDS011;59968;51.084;16.748;2023-03-01T11:23:36;26.00;;;12.50;;
72095;SDS011;59968;51.084;16.748;2023-03-01T11:26:08;24.20;;;12.30;;
72095;SDS011;59968;51.084;16.748;2023-03-01T11:28:40;25.40;;;12.30;;
72095;SDS011;59968;51.084;16.748;2023-03-01T11:31:10;22.90;;;11.60;;
72095;SDS011;59968;51.084;16.748;2023-03-01T11:33:43;25.70;;;11.10;;
72095;SDS011;59968;51.084;16.748;2023-03-01T11:36:35;25.30;;;12.10;;
72095;SDS011;59968;51.084;16.748;2023-03-01T11:42:11;30.70;;;13.60;;
72095;SDS011;59968;51.084;16.748;2023-03-01T11:44:47;25.80;;;13.10;;
72095;SDS011;59968;51.084;16.748;2023-03-01T11:52:42;28.20;;;13.00;;
72095;SDS011;59968;51.084;16.748;2023-03-01T12:09:17;27.50;;;13.40;;
72095;SDS011;59968;51.084;16.748;2023-03-01T12:29:25;32.70;;;15.20;;
72095;SDS011;59968;51.084;16.748;2023-03-01T12:34:50;25.20;;;12.30;;
72095;SDS011;59968;51.084;16.748;2023-03-01T12:49:47;25.00;;;11.30;;
72095;SDS011;59968;51.084;16.748;2023-03-01T12:54:57;22.10;;;11.10;;
72095;SDS011;59968;51.084;16.748;2023-03-01T13:00:17;17.10;;;7.80;;
72095;SDS011;59968;51.084;16.748;2023-03-01T13:11:32;20.70;;;9.90;;
72095;SDS011;59968;51.084;16.748;2023-03-01T13:16:51;24.20;;;9.90;;
72095;SDS011;59968;51.084;16.748;2023-03-01T13:19:24;20.10;;;9.40;;
72095;SDS011;59968;51.084;16.748;2023-03-01T13:21:57;17.60;;;8.20;;
72095;SDS011;59968;51.084;16.748;2023-03-01T13:32:26;22.70;;;10.10;;
72095;SDS011;59968;51.084;16.748;2023-03-01T13:37:43;21.00;;;10.20;;
72095;SDS011;59968;51.084;16.748;2023-03-01T13:42:47;19.30;;;9.20;;
72095;SDS011;59968;51.084;16.748;2023-03-01T13:50:45;20.20;;;9.10;;
72095;SDS011;59968;51.084;16.748;2023-03-01T13:53:18;17.90;;;8.70;;
72095;SDS011;59968;51.084;16.748;2023-03-01T13:55:48;16.80;;;7.70;;
72095;SDS011;59968;51.084;16.748;2023-03-01T13:58:30;15.90;;;8.00;;
72095;SDS011;59968;51.084;16.748;2023-03-01T14:01:05;16.70;;;8.10;;
72095;SDS011;59968;51.084;16.748;2023-03-01T14:03:40;18.10;;;8.00;;
72095;SDS011;59968;51.084;16.748;2023-03-01T14:06:14;16.50;;;8.30;;
72095;SDS011;59968;51.084;16.748;2023-03-01T14:09:02;17.00;;;8.90;;
72095;SDS011;59968;51.084;16.748;2023-03-01T14:20:20;21.10;;;9.60;;
72095;SDS011;59968;51.084;16.748;2023-03-01T14:22:53;17.20;;;7.50;;
72095;SDS011;59968;51.084;16.748;2023-03-01T14:28:11;15.00;;;7.50;;
72095;SDS011;59968;51.084;16.748;2023-03-01T14:30:48;13.00;;;6.50;;
72095;SDS011;59968;51.084;16.748;2023-03-01T14:38:37;12.20;;;6.10;;
72095;SDS011;59968;51.084;16.748;2023-03-01T14:43:49;12.20;;;6.20;;
72095;SDS011;59968;51.084;16.748;2023-03-01T14:46:36;14.80;;;6.80;;
72095;SDS011;59968;51.084;16.748;2023-03-01T14:51:40;13.90;;;6.60;;
72095;SDS011;59968;51.084;16.748;2023-03-01T14:54:21;13.90;;;6.30;;
72095;SDS011;59968;51.084;16.748;2023-03-01T14:56:58;14.40;;;6.40;;
72095;SDS011;59968;51.084;16.748;2023-03-01T14:59:28;15.90;;;6.90;;
72095;SDS011;59968;51.084;16.748;2023-03-01T15:01:57;18.00;;;9.50;;
72095;SDS011;59968;51.084;16.748;2023-03-01T15:04:28;16.10;;;7.40;;
72095;SDS011;59968;51.084;16.748;2023-03-01T15:06:57;15.40;;;7.30;;
72095;SDS011;59968;51.084;16.748;2023-03-01T15:09:33;21.50;;;8.90;;
72095;SDS011;59968;51.084;16.748;2023-03-01T15:14:56;16.30;;;7.10;;
72095;SDS011;59968;51.084;16.748;2023-03-01T15:17:32;14.70;;;7.00;;
72095;SDS011;59968;51.084;16.748;2023-03-01T15:20:13;13.70;;;6.50;;
72095;SDS011;59968;51.084;16.748;2023-03-01T15:22:45;14.70;;;6.20;;
72095;SDS011;59968;51.084;16.748;2023-03-01T15:25:18;15.50;;;6.90;;
72095;SDS011;59968;51.084;16.748;2023-03-01T15:27:48;13.90;;;6.30;;
72095;SDS011;59968;51.084;16.748;2023-03-01T15:35:55;13.20;;;5.70;;
72095;SDS011;59968;51.084;16.748;2023-03-01T15:38:30;12.50;;;5.70;;
72095;SDS011;59968;51.084;16.748;2023-03-01T15:41:02;11.60;;;5.60;;
72095;SDS011;59968;51.084;16.748;2023-03-01T15:43:39;11.70;;;5.70;;
72095;SDS011;59968;51.084;16.748;2023-03-01T15:48:59;13.90;;;5.90;;
72095;SDS011;59968;51.084;16.748;2023-03-01T15:51:33;15.90;;;6.00;;
72095;SDS011;59968;51.084;16.748;2023-03-01T15:54:12;14.00;;;6.00;;
72095;SDS011;59968;51.084;16.748;2023-03-01T15:56:46;13.90;;;5.70;;
72095;SDS011;59968;51.084;16.748;2023-03-01T15:59:15;12.70;;;5.70;;
72095;SDS011;59968;51.084;16.748;2023-03-01T16:01:45;12.80;;;5.50;;
72095;SDS011;59968;51.084;16.748;2023-03-01T16:04:15;11.30;;;5.70;;
72095;SDS011;59968;51.084;16.748;2023-03-01T16:06:52;16.50;;;6.20;;
72095;SDS011;59968;51.084;16.748;2023-03-01T16:09:25;12.90;;;6.20;;
72095;SDS011;59968;51.084;16.748;2023-03-01T16:11:54;12.70;;;5.60;;
72095;SDS011;59968;51.084;16.748;2023-03-01T16:14:23;11.00;;;4.90;;
72095;SDS011;59968;51.084;16.748;2023-03-01T16:16:53;13.50;;;5.60;;
72095;SDS011;59968;51.084;16.748;2023-03-01T16:19:22;12.60;;;5.50;;
72095;SDS011;59968;51.084;16.748;2023-03-01T16:21:52;12.40;;;5.10;;
72095;SDS011;59968;51.084;16.748;2023-03-01T16:24:21;12.50;;;5.60;;
72095;SDS011;59968;51.084;16.748;2023-03-01T16:26:50;13.90;;;5.40;;
72095;SDS011;59968;51.084;16.748;2023-03-01T16:29:19;12.00;;;5.50;;
72095;SDS011;59968;51.084;16.748;2023-03-01T16:31:48;13.40;;;6.40;;
72095;SDS011;59968;51.084;16.748;2023-03-01T16:34:17;15.20;;;6.10;;
72095;SDS011;59968;51.084;16.748;2023-03-01T16:36:50;12.20;;;5.30;;
72095;SDS011;59968;51.084;16.748;2023-03-01T16:39:19;11.20;;;5.40;;
72095;SDS011;59968;51.084;16.748;2023-03-01T16:41:48;11.10;;;5.70;;
72095;SDS011;59968;51.084;16.748;2023-03-01T16:44:17;12.00;;;5.20;;
72095;SDS011;59968;51.084;16.748;2023-03-01T16:46:46;13.40;;;5.70;;
72095;SDS011;59968;51.084;16.748;2023-03-01T16:49:15;12.90;;;5.50;;
72095;SDS011;59968;51.084;16.748;2023-03-01T16:51:44;11.60;;;5.10;;
72095;SDS011;59968;51.084;16.748;2023-03-01T16:54:13;10.90;;;5.10;;
72095;SDS011;59968;51.084;16.748;2023-03-01T16:56:42;14.30;;;6.20;;
72095;SDS011;59968;51.084;16.748;2023-03-01T16:59:12;11.30;;;4.90;;
72095;SDS011;59968;51.084;16.748;2023-03-01T17:01:41;12.70;;;5.20;;
72095;SDS011;59968;51.084;16.748;2023-03-01T17:04:11;14.50;;;5.80;;
72095;SDS011;59968;51.084;16.748;2023-03-01T17:06:40;13.40;;;6.20;;
72095;SDS011;59968;51.084;16.748;2023-03-01T17:09:10;14.30;;;6.60;;
72095;SDS011;59968;51.084;16.748;2023-03-01T17:11:39;23.20;;;9.00;;
72095;SDS011;59968;51.084;16.748;2023-03-01T17:14:08;43.70;;;16.30;;
72095;SDS011;59968;51.084;16.748;2023-03-01T17:16:37;55.10;;;19.50;;
72095;SDS011;59968;51.084;16.748;2023-03-01T17:19:06;55.20;;;21.90;;
72095;SDS011;59968;51.084;16.748;2023-03-01T17:21:35;59.00;;;22.80;;
72095;SDS011;59968;51.084;16.748;2023-03-01T17:24:05;50.80;;;19.70;;
72095;SDS011;59968;51.084;16.748;2023-03-01T17:26:35;58.20;;;20.00;;